createdAt,value
2022-11-02T00:00:52.739Z,14.78
2022-11-02T00:03:29.360Z,14.82
2022-11-02T00:06:07.309Z,14.66
2022-11-02T00:08:46.505Z,14.57
2022-11-02T00:11:16.736Z,14.65
2022-11-02T00:13:52.674Z,14.46
2022-11-02T00:16:26.910Z,14.48
2022-11-02T00:19:04.492Z,14.58
2022-11-02T00:21:38.954Z,14.48
2022-11-02T00:24:12.657Z,14.53
2022-11-02T00:26:42.886Z,14.77
2022-11-02T00:29:26.191Z,14.91
2022-11-02T00:32:00.690Z,14.68
2022-11-02T00:34:44.095Z,14.35
2022-11-02T00:37:16.136Z,14.28
2022-11-02T00:39:51.003Z,14.38
2022-11-02T00:42:25.258Z,14.42
2022-11-02T00:45:24.930Z,14.39
2022-11-02T00:47:55.775Z,14.67
2022-11-02T00:50:33.575Z,14.74
2022-11-02T00:53:07.598Z,14.68
2022-11-02T00:55:55.026Z,14.79
2022-11-02T00:58:31.994Z,14.59
2022-11-02T01:01:11.861Z,14.28
2022-11-02T01:03:49.052Z,14.62
2022-11-02T01:06:31.414Z,14.27
2022-11-02T01:09:03.077Z,14.44
2022-11-02T01:11:37.196Z,13.98
2022-11-02T01:14:11.909Z,13.92
2022-11-02T01:16:49.907Z,13.98
2022-11-02T01:19:30.216Z,14.07
2022-11-02T01:22:02.599Z,13.92
2022-11-02T01:24:40.357Z,13.40
2022-11-02T01:27:11.750Z,12.79
2022-11-02T01:29:43.776Z,13.06
2022-11-02T01:32:16.985Z,13.20
2022-11-02T01:34:51.432Z,13.34
2022-11-02T01:37:32.504Z,12.79
2022-11-02T01:40:03.046Z,13.26
2022-11-02T01:42:43.463Z,13.44
2022-11-02T01:45:27.491Z,13.38
2022-11-02T01:48:01.382Z,13.44
2022-11-02T01:50:34.843Z,13.69
2022-11-02T01:53:10.188Z,13.74
2022-11-02T01:55:41.763Z,13.43
2022-11-02T01:58:22.175Z,13.58
2022-11-02T02:00:55.374Z,13.68
2022-11-02T02:03:43.966Z,13.44
2022-11-02T02:06:18.508Z,13.62
2022-11-02T02:09:00.482Z,13.62
2022-11-02T02:11:34.926Z,13.54
2022-11-02T02:14:13.231Z,13.20
2022-11-02T02:17:03.841Z,13.65
2022-11-02T02:20:13.776Z,13.48
2022-11-02T02:23:08.389Z,13.12
2022-11-02T02:25:50.673Z,13.25
2022-11-02T02:28:53.167Z,13.33
2022-11-02T02:31:45.743Z,13.55
2022-11-02T02:34:24.783Z,13.50
2022-11-02T02:37:00.669Z,13.34
2022-11-02T02:39:47.564Z,12.68
2022-11-02T02:42:29.285Z,13.11
2022-11-02T02:45:35.311Z,13.42
2022-11-02T02:48:21.520Z,13.49
2022-11-02T02:51:00.918Z,13.37
2022-11-02T02:53:38.248Z,13.36
2022-11-02T02:56:15.928Z,13.25
2022-11-02T02:59:13.458Z,13.38
2022-11-02T03:01:48.868Z,13.49
2022-11-02T03:04:21.854Z,13.62
2022-11-02T03:07:01.535Z,13.78
2022-11-02T03:09:40.502Z,13.65
2022-11-02T03:12:36.992Z,13.95
2022-11-02T03:15:16.977Z,13.91
2022-11-02T03:18:05.095Z,13.91
2022-11-02T03:20:55.455Z,13.89
2022-11-02T03:23:32.720Z,13.91
2022-11-02T03:26:18.026Z,13.86
2022-11-02T03:29:10.282Z,13.66
2022-11-02T03:32:03.839Z,13.82
2022-11-02T03:34:46.180Z,13.80
2022-11-02T03:37:52.547Z,13.72
2022-11-02T03:40:32.111Z,13.50
2022-11-02T03:43:07.420Z,13.36
2022-11-02T03:45:49.759Z,13.74
2022-11-02T03:48:26.268Z,13.72
2022-11-02T03:51:07.415Z,13.81
2022-11-02T03:54:02.518Z,14.03
2022-11-02T03:56:47.074Z,13.98
2022-11-02T03:59:26.678Z,14.11
2022-11-02T04:02:14.089Z,14.15
2022-11-02T04:04:57.046Z,14.26
2022-11-02T04:07:58.363Z,14.32
2022-11-02T04:10:35.322Z,14.36
2022-11-02T04:13:37.535Z,14.47
2022-11-02T04:16:15.967Z,14.47
2022-11-02T04:19:06.592Z,14.41
2022-11-02T04:22:01.717Z,14.55
2022-11-02T04:24:57.783Z,14.50
2022-11-02T04:27:39.944Z,14.58
2022-11-02T04:30:21.795Z,14.40
2022-11-02T04:33:14.003Z,14.46
2022-11-02T04:35:56.265Z,14.53
2022-11-02T04:38:45.483Z,14.52
2022-11-02T04:41:42.291Z,14.58
2022-11-02T04:44:26.219Z,14.46
2022-11-02T04:47:05.203Z,14.24
2022-11-02T04:49:58.804Z,14.23
2022-11-02T04:52:39.750Z,14.26
2022-11-02T04:55:16.832Z,14.43
2022-11-02T04:57:51.748Z,14.44
2022-11-02T05:00:27.736Z,14.40
2022-11-02T05:03:08.110Z,14.59
2022-11-02T05:06:00.577Z,14.69
2022-11-02T05:08:44.567Z,14.67
2022-11-02T05:11:28.521Z,14.58
2022-11-02T05:14:06.452Z,14.47
2022-11-02T05:16:43.520Z,14.17
2022-11-02T05:19:16.748Z,13.97
2022-11-02T05:22:07.947Z,14.34
2022-11-02T05:24:44.456Z,14.36
2022-11-02T05:27:21.973Z,14.45
2022-11-02T05:30:06.297Z,14.40
2022-11-02T05:32:46.258Z,14.36
2022-11-02T05:35:24.403Z,14.23
2022-11-02T05:38:11.839Z,14.11
2022-11-02T05:41:01.408Z,14.13
2022-11-02T05:43:49.235Z,14.63
2022-11-02T05:46:34.063Z,14.66
2022-11-02T05:49:27.454Z,14.67
2022-11-02T05:52:05.484Z,14.88
2022-11-02T05:54:33.866Z,15.07
2022-11-02T05:57:02.145Z,15.07
2022-11-02T05:59:31.614Z,15.13
2022-11-02T06:01:59.259Z,15.04
2022-11-02T06:04:27.478Z,14.95
2022-11-02T06:06:58.963Z,14.65
2022-11-02T06:09:27.835Z,14.50
2022-11-02T06:11:56.399Z,14.12
2022-11-02T06:14:26.207Z,14.33
2022-11-02T06:16:54.708Z,14.17
2022-11-02T06:19:23.277Z,13.98
2022-11-02T06:21:51.686Z,14.35
2022-11-02T06:24:19.876Z,14.21
2022-11-02T06:26:49.071Z,14.61
2022-11-02T06:29:16.921Z,14.80
2022-11-02T06:31:46.458Z,14.90
2022-11-02T06:34:14.320Z,15.08
2022-11-02T06:36:42.691Z,14.94
2022-11-02T06:39:11.568Z,15.10
2022-11-02T06:41:39.946Z,15.10
2022-11-02T06:44:08.028Z,15.39
2022-11-02T06:46:36.467Z,15.35
2022-11-02T06:49:04.420Z,15.39
2022-11-02T06:51:32.225Z,15.50
2022-11-02T06:54:05.982Z,15.43
2022-11-02T06:56:36.441Z,15.33
2022-11-02T06:59:04.501Z,15.50
2022-11-02T07:01:35.831Z,15.61
2022-11-02T07:04:04.296Z,15.23
2022-11-02T07:06:34.388Z,15.30
2022-11-02T07:09:07.012Z,15.60
2022-11-02T07:11:35.755Z,15.75
2022-11-02T07:14:03.662Z,15.93
2022-11-02T07:16:31.855Z,15.96
2022-11-02T07:19:00.296Z,16.13
2022-11-02T07:21:28.048Z,16.05
2022-11-02T07:23:55.554Z,15.80
2022-11-02T07:26:24.861Z,15.91
2022-11-02T07:28:55.274Z,15.77
2022-11-02T07:31:27.584Z,15.92
2022-11-02T07:33:55.654Z,15.70
2022-11-02T07:36:23.552Z,15.88
2022-11-02T07:38:52.002Z,15.96
2022-11-02T07:41:19.787Z,15.99
2022-11-02T07:43:48.388Z,15.88
2022-11-02T07:46:17.706Z,15.96
2022-11-02T07:48:47.072Z,16.25
2022-11-02T07:51:14.717Z,16.32
2022-11-02T07:53:42.931Z,16.34
2022-11-02T07:56:11.684Z,16.56
2022-11-02T07:58:40.002Z,16.82
2022-11-02T08:01:08.554Z,17.00
2022-11-02T08:03:36.936Z,16.95
2022-11-02T08:06:05.273Z,16.89
2022-11-02T08:08:33.130Z,17.17
2022-11-02T08:11:09.846Z,16.78
2022-11-02T08:13:39.709Z,17.09
2022-11-02T08:16:10.154Z,16.69
2022-11-02T08:18:38.064Z,16.43
2022-11-02T08:21:05.953Z,16.80
2022-11-02T08:23:33.923Z,16.56
2022-11-02T08:26:01.887Z,16.79
2022-11-02T08:28:32.404Z,16.62
2022-11-02T08:31:00.830Z,16.52
2022-11-02T08:33:28.796Z,16.59
2022-11-02T08:36:02.451Z,16.72
2022-11-02T08:38:31.749Z,16.84
2022-11-02T08:40:59.819Z,16.70
2022-11-02T08:43:27.764Z,16.14
2022-11-02T08:46:14.324Z,16.83
2022-11-02T08:48:44.742Z,16.75
2022-11-02T08:51:13.373Z,16.70
2022-11-02T08:53:42.366Z,16.92
2022-11-02T08:56:12.896Z,16.99
2022-11-02T08:58:41.051Z,17.39
2022-11-02T09:01:08.972Z,17.58
2022-11-02T09:03:37.468Z,17.64
2022-11-02T09:06:05.823Z,17.72
2022-11-02T09:08:33.668Z,17.85
2022-11-02T09:11:04.365Z,18.19
2022-11-02T09:13:34.262Z,18.24
2022-11-02T09:16:05.138Z,18.43
2022-11-02T09:18:33.963Z,17.94
2022-11-02T09:21:05.644Z,18.39
2022-11-02T09:23:34.044Z,18.50
2022-11-02T09:26:04.154Z,18.23
2022-11-02T09:28:33.690Z,18.49
2022-11-02T09:31:03.824Z,18.35
2022-11-02T09:33:36.782Z,18.71
2022-11-02T09:36:06.707Z,18.43
2022-11-02T09:38:34.815Z,18.56
2022-11-02T09:41:21.664Z,18.54
2022-11-02T09:44:08.867Z,18.66
2022-11-02T09:46:42.827Z,18.63
2022-11-02T09:49:20.269Z,18.79
2022-11-02T09:51:57.380Z,18.67
2022-11-02T09:54:48.844Z,18.87
2022-11-02T09:57:30.014Z,18.81
2022-11-02T09:59:58.454Z,18.65
2022-11-02T10:02:33.630Z,18.40
2022-11-02T10:05:26.114Z,18.53
2022-11-02T10:08:14.387Z,18.70
2022-11-02T10:10:53.291Z,18.52
2022-11-02T10:13:37.725Z,18.35
2022-11-02T10:16:08.084Z,18.43
2022-11-02T10:18:37.209Z,18.46
2022-11-02T10:21:08.473Z,18.27
2022-11-02T10:24:03.967Z,18.34
2022-11-02T10:26:37.589Z,18.45
2022-11-02T10:29:18.673Z,18.53
2022-11-02T10:31:48.685Z,18.65
2022-11-02T10:34:23.994Z,18.69
2022-11-02T10:37:01.185Z,18.78
2022-11-02T10:39:31.516Z,19.22
2022-11-02T10:42:26.919Z,19.48
2022-11-02T10:45:41.236Z,19.60
2022-11-02T10:48:23.302Z,19.96
2022-11-02T10:50:59.903Z,20.12
2022-11-02T10:53:41.143Z,19.99
2022-11-02T10:56:19.435Z,20.34
2022-11-02T10:59:00.019Z,20.39
2022-11-02T11:01:30.256Z,20.32
2022-11-02T11:04:02.018Z,20.69
2022-11-02T11:06:41.619Z,20.59
2022-11-02T11:09:20.249Z,20.83
2022-11-02T11:12:06.180Z,20.63
2022-11-02T11:20:40.291Z,20.65
2022-11-02T11:23:22.433Z,20.85
2022-11-02T11:26:05.409Z,21.30
2022-11-02T11:28:52.970Z,21.77
2022-11-02T11:31:21.628Z,21.76
2022-11-02T11:33:54.686Z,21.71
2022-11-02T11:36:31.158Z,21.73
2022-11-02T11:39:02.526Z,21.99
2022-11-02T11:41:31.113Z,22.16
2022-11-02T11:44:01.372Z,22.01
2022-11-02T11:46:40.905Z,21.92
2022-11-02T11:50:07.253Z,21.95
2022-11-02T11:52:25.583Z,21.92
2022-11-02T11:55:16.245Z,21.85
2022-11-02T11:57:44.326Z,21.87
2022-11-02T12:00:28.262Z,21.65
2022-11-02T12:03:08.566Z,21.66
2022-11-02T12:05:57.567Z,21.68
2022-11-02T12:08:32.151Z,22.12
2022-11-02T12:11:31.752Z,22.22
2022-11-02T12:14:15.408Z,22.33
2022-11-02T12:16:56.623Z,22.12
2022-11-02T12:19:54.612Z,21.93
2022-11-02T12:22:44.997Z,22.07
2022-11-02T12:25:26.155Z,22.09
2022-11-02T12:28:14.446Z,21.89
2022-11-02T12:31:20.230Z,21.85
2022-11-02T12:34:30.521Z,21.97
2022-11-02T12:37:38.697Z,22.00
2022-11-02T12:40:14.688Z,21.89
2022-11-02T12:43:15.758Z,21.93
2022-11-02T12:45:58.364Z,22.05
2022-11-02T12:49:05.841Z,21.63
2022-11-02T12:51:39.821Z,21.73
2022-11-02T12:54:12.747Z,21.95
2022-11-02T12:56:49.808Z,22.05
2022-11-02T12:59:28.112Z,22.29
2022-11-02T13:01:59.642Z,21.92
2022-11-02T13:04:36.857Z,22.35
2022-11-02T13:07:15.832Z,22.46
2022-11-02T13:09:54.430Z,22.79
2022-11-02T13:12:23.958Z,22.93
2022-11-02T13:14:55.163Z,23.16
2022-11-02T13:17:27.712Z,23.43
2022-11-02T13:20:01.506Z,23.37
2022-11-02T13:22:36.037Z,23.66
2022-11-02T13:25:15.369Z,23.80
2022-11-02T13:27:49.351Z,23.80
2022-11-02T13:30:18.735Z,24.12
2022-11-02T13:33:15.086Z,24.05
2022-11-02T13:35:43.534Z,24.21
2022-11-02T13:38:44.860Z,24.00
2022-11-02T13:41:37.194Z,24.24
2022-11-02T13:44:32.219Z,24.27
2022-11-02T13:47:15.640Z,24.10
2022-11-02T13:49:45.613Z,24.07
2022-11-02T13:52:21.765Z,23.87
2022-11-02T13:54:52.453Z,24.23
2022-11-02T13:57:41.275Z,24.60
2022-11-02T14:00:24.153Z,25.06
2022-11-02T14:03:07.071Z,25.68
2022-11-02T14:05:36.744Z,25.43
2022-11-02T14:08:08.179Z,24.93
2022-11-02T14:10:41.212Z,24.78
2022-11-02T14:13:16.161Z,24.31
2022-11-02T14:15:44.135Z,24.00
2022-11-02T14:18:26.766Z,23.61
2022-11-02T14:20:54.378Z,23.64
2022-11-02T14:23:25.984Z,23.39
2022-11-02T14:25:55.605Z,23.07
2022-11-02T14:28:23.870Z,22.97
2022-11-02T14:31:02.210Z,22.88
2022-11-02T14:34:17.568Z,22.67
2022-11-02T14:36:51.625Z,22.71
2022-11-02T14:39:49.496Z,22.48
2022-11-02T14:42:20.664Z,22.28
2022-11-02T14:45:07.556Z,22.16
2022-11-02T14:47:37.491Z,22.09
2022-11-02T14:50:16.680Z,21.92
2022-11-02T14:53:00.218Z,22.02
2022-11-02T14:55:34.073Z,22.17
2022-11-02T14:58:10.866Z,21.94
2022-11-02T15:00:56.734Z,21.82
2022-11-02T15:03:28.783Z,21.77
2022-11-02T15:06:07.766Z,21.96
2022-11-02T15:08:48.387Z,21.98
2022-11-02T15:11:47.790Z,21.89
2022-11-02T15:14:35.481Z,21.73
2022-11-02T15:17:10.476Z,21.71
2022-11-02T15:19:47.358Z,21.28
2022-11-02T15:22:46.812Z,21.31
2022-11-02T15:25:41.853Z,21.29
2022-11-02T15:28:20.078Z,21.38
2022-11-02T15:30:53.847Z,20.97
2022-11-02T15:33:34.969Z,21.16
2022-11-02T15:36:04.999Z,21.23
2022-11-02T15:38:40.343Z,21.17
2022-11-02T15:41:33.553Z,21.11
2022-11-02T15:44:15.534Z,21.14
2022-11-02T15:46:59.134Z,21.12
2022-11-02T15:49:34.924Z,21.13
2022-11-02T15:52:29.211Z,20.94
2022-11-02T15:55:21.220Z,20.90
2022-11-02T15:58:02.390Z,20.75
2022-11-02T16:00:31.667Z,20.76
2022-11-02T16:03:07.369Z,20.71
2022-11-02T16:05:38.197Z,20.42
2022-11-02T16:08:25.539Z,20.30
2022-11-02T16:11:05.829Z,20.38
2022-11-02T16:14:03.537Z,20.05
2022-11-02T16:16:33.258Z,20.04
2022-11-02T16:19:04.264Z,19.88
2022-11-02T16:21:32.495Z,19.90
2022-11-02T16:24:00.527Z,19.50
2022-11-02T16:26:29.928Z,19.59
2022-11-02T16:29:00.101Z,19.22
2022-11-02T16:31:32.201Z,18.94
2022-11-02T16:34:16.177Z,19.13
2022-11-02T16:36:44.559Z,18.69
2022-11-02T16:39:13.709Z,18.70
2022-11-02T16:41:47.463Z,18.68
2022-11-02T16:44:20.154Z,18.41
2022-11-02T16:46:50.229Z,18.42
2022-11-02T16:49:22.815Z,18.45
2022-11-02T16:51:56.347Z,18.34
2022-11-02T16:54:38.777Z,18.11
2022-11-02T16:57:17.296Z,18.29
2022-11-02T16:59:49.742Z,18.16
2022-11-02T17:02:19.873Z,17.97
2022-11-02T17:07:25.458Z,17.41
2022-11-02T17:09:57.017Z,17.43
2022-11-02T17:12:36.108Z,17.46
2022-11-02T17:15:15.486Z,17.59
2022-11-02T17:17:44.066Z,17.49
2022-11-02T17:20:15.346Z,17.26
2022-11-02T17:22:55.753Z,17.22
2022-11-02T17:25:26.844Z,17.25
2022-11-02T17:27:57.862Z,17.02
2022-11-02T17:30:30.215Z,17.05
2022-11-02T17:32:59.120Z,16.82
2022-11-02T17:35:33.015Z,16.57
2022-11-02T17:38:02.561Z,16.43
2022-11-02T17:40:33.599Z,16.48
2022-11-02T17:43:02.620Z,16.44
2022-11-02T17:45:33.701Z,16.41
2022-11-02T17:48:03.082Z,16.32
2022-11-02T17:50:37.475Z,16.27
2022-11-02T17:53:12.086Z,16.30
2022-11-02T17:55:40.640Z,16.36
2022-11-02T17:58:11.450Z,16.50
2022-11-02T18:00:40.736Z,16.65
2022-11-02T18:03:19.241Z,16.59
2022-11-02T18:05:50.207Z,16.50
2022-11-02T18:08:20.868Z,16.63
2022-11-02T18:10:51.372Z,16.64
2022-11-02T18:13:21.711Z,16.73
2022-11-02T18:15:51.469Z,16.75
2022-11-02T18:18:20.001Z,16.69
2022-11-02T18:20:48.961Z,16.37
2022-11-02T18:23:17.902Z,16.70
2022-11-02T18:25:45.803Z,16.75
2022-11-02T18:28:14.449Z,16.92
2022-11-02T18:30:44.891Z,16.83
2022-11-02T18:33:14.651Z,16.94
2022-11-02T18:35:43.127Z,16.97
2022-11-02T18:38:12.163Z,16.93
2022-11-02T18:40:40.547Z,16.91
2022-11-02T18:43:13.428Z,17.06
2022-11-02T18:45:42.117Z,16.99
2022-11-02T18:48:13.188Z,16.68
2022-11-02T18:50:42.917Z,16.97
2022-11-02T18:53:12.860Z,16.63
2022-11-02T18:55:41.783Z,16.77
2022-11-02T18:58:12.145Z,16.77
2022-11-02T19:00:42.105Z,17.06
2022-11-02T19:03:12.116Z,17.09
2022-11-02T19:06:03.644Z,17.04
2022-11-02T19:08:52.114Z,17.17
2022-11-02T19:11:20.457Z,17.14
2022-11-02T19:13:48.670Z,17.07
2022-11-02T19:16:17.422Z,16.99
2022-11-02T19:18:48.790Z,16.90
2022-11-02T19:21:22.736Z,17.03
2022-11-02T19:23:52.675Z,16.78
2022-11-02T19:26:20.487Z,16.83
2022-11-02T19:28:49.093Z,16.95
2022-11-02T19:31:18.907Z,16.59
2022-11-02T19:33:47.394Z,16.93
2022-11-02T19:36:16.067Z,16.59
2022-11-02T19:38:48.204Z,16.55
2022-11-02T19:41:19.771Z,16.38
2022-11-02T19:43:51.231Z,16.39
2022-11-02T19:46:23.072Z,16.59
2022-11-02T19:48:53.447Z,16.67
2022-11-02T19:51:24.887Z,16.27
2022-11-02T19:53:59.853Z,16.54
2022-11-02T19:56:31.834Z,16.43
2022-11-02T19:59:00.550Z,16.52
2022-11-02T20:01:37.057Z,16.45
2022-11-02T20:04:07.243Z,16.57
2022-11-02T20:06:43.096Z,16.15
2022-11-02T20:09:15.693Z,16.37
2022-11-02T20:11:45.827Z,16.50
2022-11-02T20:14:16.929Z,16.31
2022-11-02T20:16:58.424Z,16.51
2022-11-02T20:19:35.155Z,16.29
2022-11-02T20:22:08.597Z,16.14
2022-11-02T20:24:37.770Z,16.48
2022-11-02T20:27:07.145Z,16.25
2022-11-02T20:29:36.021Z,16.13
2022-11-02T20:32:10.158Z,16.12
2022-11-02T20:34:39.475Z,16.08
2022-11-02T20:37:09.150Z,16.27
2022-11-02T20:39:38.372Z,16.11
2022-11-02T20:42:11.487Z,15.99
2022-11-02T20:44:40.308Z,15.92
2022-11-02T20:47:10.721Z,15.58
2022-11-02T20:49:54.945Z,15.57
2022-11-02T20:52:24.604Z,15.56
2022-11-02T20:54:53.389Z,15.32
2022-11-02T20:57:23.205Z,15.28
2022-11-02T20:59:52.641Z,15.56
2022-11-02T21:02:22.443Z,15.77
2022-11-02T21:04:51.457Z,15.19
2022-11-02T21:07:21.711Z,15.31
2022-11-02T21:09:50.163Z,15.51
2022-11-02T21:12:36.685Z,15.25
2022-11-02T21:15:06.583Z,15.52
2022-11-02T21:17:36.694Z,15.53
2022-11-02T21:20:32.672Z,15.50
2022-11-02T21:23:05.917Z,15.64
2022-11-02T21:25:39.738Z,15.58
2022-11-02T21:28:09.553Z,15.66
2022-11-02T21:30:41.107Z,15.65
2022-11-02T21:33:12.254Z,15.49
2022-11-02T21:35:43.695Z,15.37
2022-11-02T21:38:13.630Z,15.58
2022-11-02T21:40:45.287Z,15.51
2022-11-02T21:43:13.421Z,15.62
2022-11-02T21:45:51.712Z,15.62
2022-11-02T21:48:21.779Z,15.48
2022-11-02T21:51:01.044Z,15.46
2022-11-02T21:53:31.380Z,15.41
2022-11-02T21:56:06.257Z,15.41
2022-11-02T21:58:34.797Z,15.67
2022-11-02T22:01:29.102Z,15.47
2022-11-02T22:03:57.848Z,15.55
2022-11-02T22:06:30.997Z,15.41
2022-11-02T22:09:01.390Z,15.43
2022-11-02T22:11:29.455Z,15.40
2022-11-02T22:14:19.817Z,15.27
2022-11-02T22:16:51.016Z,15.43
2022-11-02T22:19:19.765Z,15.44
2022-11-02T22:21:50.242Z,15.30
2022-11-02T22:24:17.831Z,15.28
2022-11-02T22:26:46.175Z,15.25
2022-11-02T22:29:16.781Z,15.26
2022-11-02T22:31:45.234Z,15.23
2022-11-02T22:34:17.942Z,15.30
2022-11-02T22:36:52.419Z,15.35
2022-11-02T22:39:25.878Z,15.26
2022-11-02T22:41:56.146Z,15.43
2022-11-02T22:44:27.295Z,15.29
2022-11-02T22:46:57.883Z,15.33
2022-11-02T22:49:30.582Z,14.80
2022-11-02T22:52:02.537Z,14.85
2022-11-02T22:54:35.051Z,14.57
2022-11-02T22:57:05.835Z,14.69
2022-11-02T22:59:39.622Z,14.84
2022-11-02T23:02:09.326Z,15.14
2022-11-02T23:04:40.458Z,15.26
2022-11-02T23:07:11.821Z,15.18
2022-11-02T23:09:46.048Z,15.30
2022-11-02T23:12:21.481Z,15.36
2022-11-02T23:14:53.958Z,14.87
2022-11-02T23:17:28.222Z,14.89
2022-11-02T23:20:01.070Z,15.22
2022-11-02T23:22:33.512Z,15.09
2022-11-02T23:25:15.307Z,15.26
2022-11-02T23:28:17.627Z,15.23
2022-11-02T23:31:07.533Z,15.14
2022-11-02T23:33:38.638Z,15.14
2022-11-02T23:36:13.913Z,15.08
2022-11-02T23:39:06.483Z,14.89
2022-11-02T23:41:45.618Z,15.01
2022-11-02T23:44:15.849Z,14.94
2022-11-02T23:46:49.579Z,15.09
2022-11-02T23:49:23.140Z,14.95
2022-11-02T23:52:13.475Z,14.72
2022-11-02T23:55:02.649Z,14.82
2022-11-02T23:57:35.891Z,14.76
